sensor_id;sensor_type;location;lat;lon;timestamp;pressure;altitude;pressure_sealevel;temperature;humidity
31082;BME280;17737;52.586;13.284;2023-11-21T00:00:27;100433.63;;;8.84;100.00
31082;BME280;17737;52.586;13.284;2023-11-21T00:02:56;100438.34;;;8.82;100.00
31082;BME280;17737;52.586;13.284;2023-11-21T00:05:24;100432.97;;;8.82;100.00
31082;BME280;17737;52.586;13.284;2023-11-21T00:07:53;100437.38;;;8.99;100.00
31082;BME280;17737;52.586;13.284;2023-11-21T00:10:21;100444.34;;;8.76;100.00
31082;BME280;17737;52.586;13.284;2023-11-21T00:12:49;100438.97;;;8.76;100.00
31082;BME280;17737;52.586;13.284;2023-11-21T00:15:17;100446.69;;;8.71;100.00
31082;BME280;17737;52.586;13.284;2023-11-21T00:17:46;100452.56;;;8.74;100.00
31082;BME280;17737;52.586;13.284;2023-11-21T00:20:14;100450.41;;;8.86;100.00
31082;BME280;17737;52.586;13.284;2023-11-21T00:22:42;100456.94;;;8.75;100.00
31082;BME280;17737;52.586;13.284;2023-11-21T00:25:11;100456.78;;;8.77;100.00
31082;BME280;17737;52.586;13.284;2023-11-21T00:27:42;100461.06;;;8.54;100.00
31082;BME280;17737;52.586;13.284;2023-11-21T00:30:11;100460.88;;;8.47;100.00
31082;BME280;17737;52.586;13.284;2023-11-21T00:32:40;100467.75;;;8.49;100.00
31082;BME280;17737;52.586;13.284;2023-11-21T00:35:08;100464.00;;;8.34;100.00
31082;BME280;17737;52.586;13.284;2023-11-21T00:37:36;100464.81;;;8.27;100.00
31082;BME280;17737;52.586;13.284;2023-11-21T00:40:07;100470.72;;;8.38;100.00
31082;BME280;17737;52.586;13.284;2023-11-21T00:42:37;100477.84;;;8.48;100.00
31082;BME280;17737;52.586;13.284;2023-11-21T00:45:06;100477.59;;;8.33;100.00
31082;BME280;17737;52.586;13.284;2023-11-21T00:47:35;100476.97;;;8.39;100.00
31082;BME280;17737;52.586;13.284;2023-11-21T00:50:04;100478.59;;;8.32;100.00
31082;BME280;17737;52.586;13.284;2023-11-21T00:52:34;100482.16;;;8.40;100.00
31082;BME280;17737;52.586;13.284;2023-11-21T00:55:02;100474.53;;;8.28;100.00
31082;BME280;17737;52.586;13.284;2023-11-21T00:57:31;100486.16;;;8.11;100.00
31082;BME280;17737;52.586;13.284;2023-11-21T01:00:00;100486.06;;;8.20;100.00
31082;BME280;17737;52.586;13.284;2023-11-21T01:02:33;100493.16;;;8.04;100.00
31082;BME280;17737;52.586;13.284;2023-11-21T01:05:02;100494.75;;;8.22;100.00
31082;BME280;17737;52.586;13.284;2023-11-21T01:07:31;100494.66;;;8.24;100.00
31082;BME280;17737;52.586;13.284;2023-11-21T01:09:59;100490.75;;;7.93;100.00
31082;BME280;17737;52.586;13.284;2023-11-21T01:12:27;100496.84;;;8.28;100.00
31082;BME280;17737;52.586;13.284;2023-11-21T01:14:55;100501.88;;;8.23;100.00
31082;BME280;17737;52.586;13.284;2023-11-21T01:17:25;100504.56;;;8.23;100.00
31082;BME280;17737;52.586;13.284;2023-11-21T01:19:53;100511.13;;;8.29;100.00
31082;BME280;17737;52.586;13.284;2023-11-21T01:22:22;100512.63;;;8.31;100.00
31082;BME280;17737;52.586;13.284;2023-11-21T01:24:53;100518.69;;;8.33;100.00
31082;BME280;17737;52.586;13.284;2023-11-21T01:27:21;100523.34;;;8.23;100.00
31082;BME280;17737;52.586;13.284;2023-11-21T01:29:49;100516.47;;;8.03;100.00
31082;BME280;17737;52.586;13.284;2023-11-21T01:32:20;100526.53;;;8.27;100.00
31082;BME280;17737;52.586;13.284;2023-11-21T01:34:50;100524.78;;;8.18;100.00
31082;BME280;17737;52.586;13.284;2023-11-21T01:37:18;100527.38;;;8.27;100.00
31082;BME280;17737;52.586;13.284;2023-11-21T01:39:48;100523.53;;;7.87;100.00
31082;BME280;17737;52.586;13.284;2023-11-21T01:42:16;100531.72;;;8.03;100.00
31082;BME280;17737;52.586;13.284;2023-11-21T01:44:45;100531.88;;;8.01;100.00
31082;BME280;17737;52.586;13.284;2023-11-21T01:47:13;100537.09;;;8.03;100.00
31082;BME280;17737;52.586;13.284;2023-11-21T01:49:43;100534.44;;;8.11;100.00
31082;BME280;17737;52.586;13.284;2023-11-21T01:52:14;100548.31;;;7.98;100.00
31082;BME280;17737;52.586;13.284;2023-11-21T01:54:42;100543.06;;;7.71;100.00
31082;BME280;17737;52.586;13.284;2023-11-21T01:57:12;100546.13;;;7.76;100.00
31082;BME280;17737;52.586;13.284;2023-11-21T01:59:44;100542.91;;;7.55;100.00
31082;BME280;17737;52.586;13.284;2023-11-21T02:02:13;100551.47;;;7.76;100.00
31082;BME280;17737;52.586;13.284;2023-11-21T02:04:42;100541.75;;;7.40;100.00
31082;BME280;17737;52.586;13.284;2023-11-21T02:07:10;100552.72;;;7.64;100.00
31082;BME280;17737;52.586;13.284;2023-11-21T02:09:40;100555.78;;;7.69;100.00
31082;BME280;17737;52.586;13.284;2023-11-21T02:12:09;100558.06;;;7.64;100.00
31082;BME280;17737;52.586;13.284;2023-11-21T02:14:36;100554.00;;;7.78;100.00
31082;BME280;17737;52.586;13.284;2023-11-21T02:17:05;100552.88;;;7.63;100.00
31082;BME280;17737;52.586;13.284;2023-11-21T02:19:33;100552.94;;;7.71;100.00
31082;BME280;17737;52.586;13.284;2023-11-21T02:22:01;100558.22;;;7.63;100.00
31082;BME280;17737;52.586;13.284;2023-11-21T02:24:34;100568.06;;;7.97;100.00
31082;BME280;17737;52.586;13.284;2023-11-21T02:27:03;100562.66;;;7.72;100.00
31082;BME280;17737;52.586;13.284;2023-11-21T02:29:32;100568.72;;;7.74;100.00
31082;BME280;17737;52.586;13.284;2023-11-21T02:32:00;100566.94;;;7.82;100.00
31082;BME280;17737;52.586;13.284;2023-11-21T02:34:28;100563.34;;;7.74;100.00
31082;BME280;17737;52.586;13.284;2023-11-21T02:36:56;100562.84;;;7.96;100.00
31082;BME280;17737;52.586;13.284;2023-11-21T02:39:24;100560.81;;;7.72;100.00
31082;BME280;17737;52.586;13.284;2023-11-21T02:41:54;100562.97;;;7.69;100.00
31082;BME280;17737;52.586;13.284;2023-11-21T02:44:22;100563.34;;;7.56;100.00
31082;BME280;17737;52.586;13.284;2023-11-21T02:46:50;100569.88;;;7.54;100.00
31082;BME280;17737;52.586;13.284;2023-11-21T02:49:18;100568.63;;;7.48;100.00
31082;BME280;17737;52.586;13.284;2023-11-21T02:51:46;100578.13;;;7.25;100.00
31082;BME280;17737;52.586;13.284;2023-11-21T02:54:14;100567.00;;;7.38;100.00
31082;BME280;17737;52.586;13.284;2023-11-21T02:56:45;100565.19;;;7.38;100.00
31082;BME280;17737;52.586;13.284;2023-11-21T02:59:15;100569.47;;;7.31;100.00
31082;BME280;17737;52.586;13.284;2023-11-21T03:01:43;100573.38;;;7.37;100.00
31082;BME280;17737;52.586;13.284;2023-11-21T03:04:11;100579.59;;;7.37;100.00
31082;BME280;17737;52.586;13.284;2023-11-21T03:06:44;100579.13;;;7.42;100.00
31082;BME280;17737;52.586;13.284;2023-11-21T03:09:12;100571.69;;;7.53;100.00
31082;BME280;17737;52.586;13.284;2023-11-21T03:11:41;100591.47;;;7.52;100.00
31082;BME280;17737;52.586;13.284;2023-11-21T03:14:09;100583.25;;;7.36;100.00
31082;BME280;17737;52.586;13.284;2023-11-21T03:16:38;100589.84;;;7.42;100.00
31082;BME280;17737;52.586;13.284;2023-11-21T03:19:07;100589.06;;;7.49;100.00
31082;BME280;17737;52.586;13.284;2023-11-21T03:21:35;100595.75;;;7.45;100.00
31082;BME280;17737;52.586;13.284;2023-11-21T03:24:04;100606.03;;;7.67;100.00
31082;BME280;17737;52.586;13.284;2023-11-21T03:26:33;100606.19;;;7.66;100.00
31082;BME280;17737;52.586;13.284;2023-11-21T03:29:01;100608.31;;;7.62;100.00
31082;BME280;17737;52.586;13.284;2023-11-21T03:31:31;100613.81;;;7.78;100.00
31082;BME280;17737;52.586;13.284;2023-11-21T03:34:00;100617.66;;;7.58;100.00
31082;BME280;17737;52.586;13.284;2023-11-21T03:36:28;100622.28;;;7.66;100.00
31082;BME280;17737;52.586;13.284;2023-11-21T03:38:56;100620.94;;;7.70;100.00
31082;BME280;17737;52.586;13.284;2023-11-21T03:41:24;100631.84;;;7.86;100.00
31082;BME280;17737;52.586;13.284;2023-11-21T03:43:52;100630.75;;;7.44;100.00
31082;BME280;17737;52.586;13.284;2023-11-21T03:46:20;100631.97;;;7.32;100.00
31082;BME280;17737;52.586;13.284;2023-11-21T03:48:48;100630.13;;;7.32;100.00
31082;BME280;17737;52.586;13.284;2023-11-21T03:51:18;100630.63;;;7.36;100.00
31082;BME280;17737;52.586;13.284;2023-11-21T03:53:46;100641.72;;;7.50;100.00
31082;BME280;17737;52.586;13.284;2023-11-21T03:56:14;100637.56;;;7.38;100.00
31082;BME280;17737;52.586;13.284;2023-11-21T03:58:42;100635.38;;;7.24;100.00
31082;BME280;17737;52.586;13.284;2023-11-21T04:01:10;100639.84;;;7.33;100.00
31082;BME280;17737;52.586;13.284;2023-11-21T04:03:38;100645.47;;;7.75;100.00
31082;BME280;17737;52.586;13.284;2023-11-21T04:06:07;100653.06;;;7.79;100.00
31082;BME280;17737;52.586;13.284;2023-11-21T04:08:37;100652.31;;;7.69;100.00
31082;BME280;17737;52.586;13.284;2023-11-21T04:11:05;100651.47;;;7.69;100.00
31082;BME280;17737;52.586;13.284;2023-11-21T04:13:33;100657.41;;;7.45;100.00
31082;BME280;17737;52.586;13.284;2023-11-21T04:16:02;100664.28;;;7.48;100.00
31082;BME280;17737;52.586;13.284;2023-11-21T04:18:30;100666.34;;;7.36;100.00
31082;BME280;17737;52.586;13.284;2023-11-21T04:20:58;100667.69;;;7.22;100.00
31082;BME280;17737;52.586;13.284;2023-11-21T04:23:28;100670.81;;;7.45;100.00
31082;BME280;17737;52.586;13.284;2023-11-21T04:25:59;100671.50;;;7.20;100.00
31082;BME280;17737;52.586;13.284;2023-11-21T04:28:28;100673.25;;;7.56;100.00
31082;BME280;17737;52.586;13.284;2023-11-21T04:30:57;100670.59;;;7.56;100.00
31082;BME280;17737;52.586;13.284;2023-11-21T04:33:25;100678.53;;;7.48;100.00
31082;BME280;17737;52.586;13.284;2023-11-21T04:35:53;100673.63;;;7.44;100.00
31082;BME280;17737;52.586;13.284;2023-11-21T04:38:21;100685.25;;;7.35;100.00
31082;BME280;17737;52.586;13.284;2023-11-21T04:40:49;100684.78;;;7.39;100.00
31082;BME280;17737;52.586;13.284;2023-11-21T04:43:18;100690.47;;;7.36;100.00
31082;BME280;17737;52.586;13.284;2023-11-21T04:45:46;100688.47;;;7.38;100.00
31082;BME280;17737;52.586;13.284;2023-11-21T04:48:14;100686.91;;;7.45;100.00
31082;BME280;17737;52.586;13.284;2023-11-21T04:50:43;100698.97;;;7.22;100.00
31082;BME280;17737;52.586;13.284;2023-11-21T04:53:11;100702.28;;;7.43;100.00
31082;BME280;17737;52.586;13.284;2023-11-21T04:55:41;100697.31;;;7.21;100.00
31082;BME280;17737;52.586;13.284;2023-11-21T04:58:09;100701.53;;;7.23;100.00
31082;BME280;17737;52.586;13.284;2023-11-21T05:00:39;100704.09;;;7.15;100.00
31082;BME280;17737;52.586;13.284;2023-11-21T05:03:07;100711.19;;;7.34;100.00
31082;BME280;17737;52.586;13.284;2023-11-21T05:05:36;100706.13;;;7.58;100.00
31082;BME280;17737;52.586;13.284;2023-11-21T05:08:04;100716.88;;;7.31;100.00
31082;BME280;17737;52.586;13.284;2023-11-21T05:10:32;100719.91;;;7.46;100.00
31082;BME280;17737;52.586;13.284;2023-11-21T05:13:01;100714.28;;;7.39;100.00
31082;BME280;17737;52.586;13.284;2023-11-21T05:15:30;100719.84;;;7.28;100.00
31082;BME280;17737;52.586;13.284;2023-11-21T05:17:59;100719.84;;;7.55;100.00
31082;BME280;17737;52.586;13.284;2023-11-21T05:20:27;100728.59;;;7.30;100.00
31082;BME280;17737;52.586;13.284;2023-11-21T05:22:55;100733.66;;;6.87;100.00
31082;BME280;17737;52.586;13.284;2023-11-21T05:25:25;100738.88;;;6.98;100.00
31082;BME280;17737;52.586;13.284;2023-11-21T05:27:54;100739.94;;;7.14;100.00
31082;BME280;17737;52.586;13.284;2023-11-21T05:30:22;100736.22;;;6.79;100.00
31082;BME280;17737;52.586;13.284;2023-11-21T05:32:50;100745.94;;;7.26;100.00
31082;BME280;17737;52.586;13.284;2023-11-21T05:35:19;100739.47;;;7.19;100.00
31082;BME280;17737;52.586;13.284;2023-11-21T05:37:48;100746.66;;;7.18;100.00
31082;BME280;17737;52.586;13.284;2023-11-21T05:40:16;100748.44;;;7.37;100.00
31082;BME280;17737;52.586;13.284;2023-11-21T05:42:44;100767.44;;;7.16;100.00
31082;BME280;17737;52.586;13.284;2023-11-21T05:45:12;100762.56;;;7.29;100.00
31082;BME280;17737;52.586;13.284;2023-11-21T05:47:43;100768.25;;;7.17;100.00
31082;BME280;17737;52.586;13.284;2023-11-21T05:50:15;100766.25;;;7.28;100.00
31082;BME280;17737;52.586;13.284;2023-11-21T05:52:47;100769.28;;;6.97;100.00
31082;BME280;17737;52.586;13.284;2023-11-21T05:55:15;100767.72;;;7.04;100.00
31082;BME280;17737;52.586;13.284;2023-11-21T05:57:43;100775.16;;;7.19;100.00
31082;BME280;17737;52.586;13.284;2023-11-21T06:00:13;100781.84;;;7.06;100.00
31082;BME280;17737;52.586;13.284;2023-11-21T06:02:47;100781.91;;;6.77;100.00
31082;BME280;17737;52.586;13.284;2023-11-21T06:05:17;100788.59;;;7.00;100.00
31082;BME280;17737;52.586;13.284;2023-11-21T06:07:48;100795.53;;;6.93;100.00
31082;BME280;17737;52.586;13.284;2023-11-21T06:10:16;100794.25;;;6.88;100.00
31082;BME280;17737;52.586;13.284;2023-11-21T06:12:46;100792.22;;;7.28;100.00
31082;BME280;17737;52.586;13.284;2023-11-21T06:15:15;100798.44;;;7.19;100.00
31082;BME280;17737;52.586;13.284;2023-11-21T06:17:46;100799.03;;;7.13;100.00
31082;BME280;17737;52.586;13.284;2023-11-21T06:20:19;100800.56;;;7.15;100.00
31082;BME280;17737;52.586;13.284;2023-11-21T06:22:51;100804.66;;;7.10;100.00
31082;BME280;17737;52.586;13.284;2023-11-21T06:25:19;100809.47;;;7.06;100.00
31082;BME280;17737;52.586;13.284;2023-11-21T06:27:48;100826.38;;;7.16;100.00
31082;BME280;17737;52.586;13.284;2023-11-21T06:30:16;100822.47;;;6.92;100.00
31082;BME280;17737;52.586;13.284;2023-11-21T06:32:47;100826.53;;;7.15;100.00
31082;BME280;17737;52.586;13.284;2023-11-21T06:35:16;100833.28;;;7.09;100.00
31082;BME280;17737;52.586;13.284;2023-11-21T06:37:44;100838.22;;;7.14;100.00
31082;BME280;17737;52.586;13.284;2023-11-21T06:40:17;100850.03;;;7.21;100.00
31082;BME280;17737;52.586;13.284;2023-11-21T06:42:47;100849.59;;;7.35;100.00
31082;BME280;17737;52.586;13.284;2023-11-21T06:45:16;100845.94;;;7.17;100.00
31082;BME280;17737;52.586;13.284;2023-11-21T06:47:57;100852.91;;;7.00;100.00
31082;BME280;17737;52.586;13.284;2023-11-21T06:50:25;100851.88;;;7.20;100.00
31082;BME280;17737;52.586;13.284;2023-11-21T06:52:53;100855.09;;;7.24;100.00
31082;BME280;17737;52.586;13.284;2023-11-21T06:55:27;100849.94;;;7.13;100.00
31082;BME280;17737;52.586;13.284;2023-11-21T06:57:55;100859.34;;;7.17;100.00
31082;BME280;17737;52.586;13.284;2023-11-21T07:00:24;100860.19;;;7.17;100.00
31082;BME280;17737;52.586;13.284;2023-11-21T07:02:55;100862.75;;;7.19;100.00
31082;BME280;17737;52.586;13.284;2023-11-21T07:05:23;100864.38;;;7.39;100.00
31082;BME280;17737;52.586;13.284;2023-11-21T07:07:51;100859.84;;;7.49;100.00
31082;BME280;17737;52.586;13.284;2023-11-21T07:10:20;100874.19;;;7.67;100.00
31082;BME280;17737;52.586;13.284;2023-11-21T07:12:50;100868.22;;;7.37;100.00
31082;BME280;17737;52.586;13.284;2023-11-21T07:15:18;100867.09;;;7.29;100.00
31082;BME280;17737;52.586;13.284;2023-11-21T07:17:46;100865.19;;;7.49;100.00
31082;BME280;17737;52.586;13.284;2023-11-21T07:20:15;100866.94;;;7.31;100.00
31082;BME280;17737;52.586;13.284;2023-11-21T07:22:44;100870.47;;;7.22;100.00
31082;BME280;17737;52.586;13.284;2023-11-21T07:25:12;100870.34;;;7.33;100.00
31082;BME280;17737;52.586;13.284;2023-11-21T07:27:40;100872.28;;;7.41;100.00
31082;BME280;17737;52.586;13.284;2023-11-21T07:30:11;100868.94;;;7.19;100.00
31082;BME280;17737;52.586;13.284;2023-11-21T07:32:40;100873.78;;;7.53;100.00
31082;BME280;17737;52.586;13.284;2023-11-21T07:35:09;100880.47;;;7.49;100.00
31082;BME280;17737;52.586;13.284;2023-11-21T07:37:37;100885.22;;;7.55;100.00
31082;BME280;17737;52.586;13.284;2023-11-21T07:40:06;100884.25;;;7.46;100.00
31082;BME280;17737;52.586;13.284;2023-11-21T07:42:36;100887.16;;;7.72;100.00
31082;BME280;17737;52.586;13.284;2023-11-21T07:45:05;100881.53;;;7.65;100.00
31082;BME280;17737;52.586;13.284;2023-11-21T07:47:36;100891.44;;;7.55;100.00
31082;BME280;17737;52.586;13.284;2023-11-21T07:50:07;100893.81;;;7.58;100.00
31082;BME280;17737;52.586;13.284;2023-11-21T07:52:35;100894.06;;;7.65;100.00
31082;BME280;17737;52.586;13.284;2023-11-21T07:55:04;100901.56;;;7.61;100.00
31082;BME280;17737;52.586;13.284;2023-11-21T07:57:34;100902.91;;;7.84;100.00
31082;BME280;17737;52.586;13.284;2023-11-21T08:00:02;100899.38;;;7.47;100.00
31082;BME280;17737;52.586;13.284;2023-11-21T08:02:33;100912.28;;;7.61;100.00
31082;BME280;17737;52.586;13.284;2023-11-21T08:05:03;100911.91;;;7.47;100.00
31082;BME280;17737;52.586;13.284;2023-11-21T08:07:31;100916.00;;;7.51;100.00
31082;BME280;17737;52.586;13.284;2023-11-21T08:09:59;100923.97;;;7.23;100.00
31082;BME280;17737;52.586;13.284;2023-11-21T08:12:27;100926.63;;;7.23;100.00
31082;BME280;17737;52.586;13.284;2023-11-21T08:14:55;100928.03;;;7.18;100.00
31082;BME280;17737;52.586;13.284;2023-11-21T08:17:23;100926.78;;;6.93;100.00
31082;BME280;17737;52.586;13.284;2023-11-21T08:19:51;100924.09;;;6.84;100.00
31082;BME280;17737;52.586;13.284;2023-11-21T08:22:21;100936.78;;;6.82;100.00
31082;BME280;17737;52.586;13.284;2023-11-21T08:24:49;100940.31;;;7.11;100.00
31082;BME280;17737;52.586;13.284;2023-11-21T08:27:18;100937.47;;;6.93;100.00
31082;BME280;17737;52.586;13.284;2023-11-21T08:29:46;100944.53;;;7.04;100.00
31082;BME280;17737;52.586;13.284;2023-11-21T08:32:14;100946.81;;;7.18;100.00
31082;BME280;17737;52.586;13.284;2023-11-21T08:34:42;100951.44;;;6.97;100.00
31082;BME280;17737;52.586;13.284;2023-11-21T08:37:14;100954.28;;;7.14;100.00
31082;BME280;17737;52.586;13.284;2023-11-21T08:39:44;100952.28;;;7.36;100.00
31082;BME280;17737;52.586;13.284;2023-11-21T08:42:12;100951.72;;;7.03;100.00
31082;BME280;17737;52.586;13.284;2023-11-21T08:44:41;100955.53;;;6.91;100.00
31082;BME280;17737;52.586;13.284;2023-11-21T08:47:09;100954.53;;;7.02;100.00
31082;BME280;17737;52.586;13.284;2023-11-21T08:49:37;100967.50;;;6.97;100.00
31082;BME280;17737;52.586;13.284;2023-11-21T08:52:05;100967.09;;;6.82;100.00
31082;BME280;17737;52.586;13.284;2023-11-21T08:54:33;100965.66;;;6.88;100.00
31082;BME280;17737;52.586;13.284;2023-11-21T08:57:03;100982.75;;;7.06;100.00
31082;BME280;17737;52.586;13.284;2023-11-21T08:59:31;100970.06;;;7.08;100.00
31082;BME280;17737;52.586;13.284;2023-11-21T09:01:59;100979.47;;;6.74;100.00
31082;BME280;17737;52.586;13.284;2023-11-21T09:04:27;100986.84;;;6.91;100.00
31082;BME280;17737;52.586;13.284;2023-11-21T09:06:55;100997.28;;;6.94;100.00
31082;BME280;17737;52.586;13.284;2023-11-21T09:09:26;100988.22;;;6.85;100.00
31082;BME280;17737;52.586;13.284;2023-11-21T09:11:54;100995.03;;;6.89;100.00
31082;BME280;17737;52.586;13.284;2023-11-21T09:14:23;100999.53;;;6.89;100.00
31082;BME280;17737;52.586;13.284;2023-11-21T09:16:51;101007.50;;;6.70;100.00
31082;BME280;17737;52.586;13.284;2023-11-21T09:19:19;101008.28;;;7.00;100.00
31082;BME280;17737;52.586;13.284;2023-11-21T09:21:47;101010.25;;;7.08;100.00
31082;BME280;17737;52.586;13.284;2023-11-21T09:24:15;101013.63;;;7.10;100.00
31082;BME280;17737;52.586;13.284;2023-11-21T09:26:43;101017.72;;;7.04;100.00
31082;BME280;17737;52.586;13.284;2023-11-21T09:29:11;101019.66;;;6.83;100.00
31082;BME280;17737;52.586;13.284;2023-11-21T09:31:41;101024.91;;;7.04;100.00
31082;BME280;17737;52.586;13.284;2023-11-21T09:34:10;101027.31;;;7.36;100.00
31082;BME280;17737;52.586;13.284;2023-11-21T09:36:39;101028.59;;;7.22;100.00
31082;BME280;17737;52.586;13.284;2023-11-21T09:39:07;101029.16;;;7.45;100.00
31082;BME280;17737;52.586;13.284;2023-11-21T09:41:42;101034.09;;;7.11;100.00
31082;BME280;17737;52.586;13.284;2023-11-21T09:44:13;101035.47;;;6.96;100.00
31082;BME280;17737;52.586;13.284;2023-11-21T09:46:48;101039.00;;;6.96;100.00
31082;BME280;17737;52.586;13.284;2023-11-21T09:49:18;101046.34;;;6.94;100.00
31082;BME280;17737;52.586;13.284;2023-11-21T09:51:54;101050.13;;;6.82;100.00
31082;BME280;17737;52.586;13.284;2023-11-21T09:54:23;101045.44;;;6.75;100.00
31082;BME280;17737;52.586;13.284;2023-11-21T09:56:53;101053.19;;;6.78;100.00
31082;BME280;17737;52.586;13.284;2023-11-21T09:59:21;101050.22;;;6.71;100.00
31082;BME280;17737;52.586;13.284;2023-11-21T10:01:51;101046.28;;;6.75;100.00
31082;BME280;17737;52.586;13.284;2023-11-21T10:04:19;101044.72;;;6.73;100.00
31082;BME280;17737;52.586;13.284;2023-11-21T10:06:48;101059.53;;;6.77;100.00
31082;BME280;17737;52.586;13.284;2023-11-21T10:09:19;101059.47;;;7.07;100.00
31082;BME280;17737;52.586;13.284;2023-11-21T10:11:49;101057.91;;;7.14;100.00
31082;BME280;17737;52.586;13.284;2023-11-21T10:14:18;101063.84;;;7.17;100.00
31082;BME280;17737;52.586;13.284;2023-11-21T10:16:53;101057.81;;;7.35;100.00
31082;BME280;17737;52.586;13.284;2023-11-21T10:19:23;101062.88;;;7.38;100.00
31082;BME280;17737;52.586;13.284;2023-11-21T10:21:53;101063.31;;;7.23;100.00
31082;BME280;17737;52.586;13.284;2023-11-21T10:24:24;101067.19;;;7.00;100.00
31082;BME280;17737;52.586;13.284;2023-11-21T10:26:52;101068.06;;;7.01;100.00
31082;BME280;17737;52.586;13.284;2023-11-21T10:29:20;101069.06;;;7.09;100.00
31082;BME280;17737;52.586;13.284;2023-11-21T10:31:49;101065.22;;;6.93;100.00
31082;BME280;17737;52.586;13.284;2023-11-21T10:34:20;101075.38;;;6.99;100.00
31082;BME280;17737;52.586;13.284;2023-11-21T10:36:48;101075.47;;;6.88;100.00
31082;BME280;17737;52.586;13.284;2023-11-21T10:39:17;101074.59;;;6.68;100.00
31082;BME280;17737;52.586;13.284;2023-11-21T10:41:46;101077.91;;;6.61;100.00
31082;BME280;17737;52.586;13.284;2023-11-21T10:44:16;101079.09;;;6.38;100.00
31082;BME280;17737;52.586;13.284;2023-11-21T10:46:49;101081.44;;;6.52;100.00
31082;BME280;17737;52.586;13.284;2023-11-21T10:49:18;101084.44;;;6.68;100.00
31082;BME280;17737;52.586;13.284;2023-11-21T10:51:51;101087.66;;;6.62;100.00
31082;BME280;17737;52.586;13.284;2023-11-21T10:54:21;101087.09;;;6.58;100.00
31082;BME280;17737;52.586;13.284;2023-11-21T10:56:53;101086.78;;;6.52;100.00
31082;BME280;17737;52.586;13.284;2023-11-21T10:59:29;101093.78;;;6.43;100.00
31082;BME280;17737;52.586;13.284;2023-11-21T11:02:01;101096.41;;;6.13;100.00
31082;BME280;17737;52.586;13.284;2023-11-21T11:04:43;101095.72;;;6.11;100.00
31082;BME280;17737;52.586;13.284;2023-11-21T11:07:11;101092.03;;;6.33;100.00
31082;BME280;17737;52.586;13.284;2023-11-21T11:09:42;101102.13;;;6.20;100.00
31082;BME280;17737;52.586;13.284;2023-11-21T11:12:13;101108.88;;;6.24;100.00
31082;BME280;17737;52.586;13.284;2023-11-21T11:14:44;101114.63;;;6.40;100.00
31082;BME280;17737;52.586;13.284;2023-11-21T11:17:12;101112.56;;;6.53;100.00
31082;BME280;17737;52.586;13.284;2023-11-21T11:19:41;101111.50;;;6.65;100.00
31082;BME280;17737;52.586;13.284;2023-11-21T11:22:19;101114.38;;;6.52;100.00
31082;BME280;17737;52.586;13.284;2023-11-21T11:25:13;101118.53;;;6.36;100.00
31082;BME280;17737;52.586;13.284;2023-11-21T11:27:54;101114.94;;;6.26;100.00
31082;BME280;17737;52.586;13.284;2023-11-21T11:30:43;101127.00;;;6.41;100.00
31082;BME280;17737;52.586;13.284;2023-11-21T11:33:34;101125.91;;;6.02;100.00
31082;BME280;17737;52.586;13.284;2023-11-21T11:36:13;101135.50;;;6.04;100.00
31082;BME280;17737;52.586;13.284;2023-11-21T11:38:48;101130.81;;;6.18;100.00
31082;BME280;17737;52.586;13.284;2023-11-21T11:41:26;101144.50;;;6.24;100.00
31082;BME280;17737;52.586;13.284;2023-11-21T11:43:58;101145.25;;;6.26;100.00
31082;BME280;17737;52.586;13.284;2023-11-21T11:46:41;101140.84;;;6.04;100.00
31082;BME280;17737;52.586;13.284;2023-11-21T11:49:23;101148.09;;;5.93;100.00
31082;BME280;17737;52.586;13.284;2023-11-21T11:55:02;101163.50;;;6.21;100.00
31082;BME280;17737;52.586;13.284;2023-11-21T11:57:31;101169.34;;;6.56;100.00
31082;BME280;17737;52.586;13.284;2023-11-21T12:00:16;101167.59;;;6.46;100.00
31082;BME280;17737;52.586;13.284;2023-11-21T12:02:57;101166.28;;;6.61;100.00
31082;BME280;17737;52.586;13.284;2023-11-21T12:05:30;101168.50;;;6.35;100.00
31082;BME280;17737;52.586;13.284;2023-11-21T12:08:03;101180.28;;;6.02;100.00
31082;BME280;17737;52.586;13.284;2023-11-21T12:10:37;101174.94;;;6.23;100.00
31082;BME280;17737;52.586;13.284;2023-11-21T12:13:08;101177.22;;;6.48;100.00
31082;BME280;17737;52.586;13.284;2023-11-21T12:15:39;101183.66;;;6.25;100.00
31082;BME280;17737;52.586;13.284;2023-11-21T12:18:08;101191.09;;;6.22;100.00
31082;BME280;17737;52.586;13.284;2023-11-21T12:20:37;101180.47;;;6.52;100.00
31082;BME280;17737;52.586;13.284;2023-11-21T12:23:07;101190.44;;;6.08;100.00
31082;BME280;17737;52.586;13.284;2023-11-21T12:25:39;101196.13;;;6.36;100.00
31082;BME280;17737;52.586;13.284;2023-11-21T12:28:08;101206.06;;;6.24;100.00
31082;BME280;17737;52.586;13.284;2023-11-21T12:30:37;101200.06;;;6.11;100.00
31082;BME280;17737;52.586;13.284;2023-11-21T12:33:06;101202.75;;;6.00;100.00
31082;BME280;17737;52.586;13.284;2023-11-21T12:35:37;101211.66;;;6.00;100.00
31082;BME280;17737;52.586;13.284;2023-11-21T12:38:09;101211.53;;;6.23;100.00
31082;BME280;17737;52.586;13.284;2023-11-21T12:40:38;101204.00;;;6.17;100.00
31082;BME280;17737;52.586;13.284;2023-11-21T12:43:08;101216.75;;;6.24;100.00
31082;BME280;17737;52.586;13.284;2023-11-21T12:45:36;101220.59;;;6.11;100.00
31082;BME280;17737;52.586;13.284;2023-11-21T12:48:05;101221.06;;;5.73;100.00
31082;BME280;17737;52.586;13.284;2023-11-21T12:50:38;101222.19;;;5.59;100.00
31082;BME280;17737;52.586;13.284;2023-11-21T12:53:08;101223.66;;;5.63;100.00
31082;BME280;17737;52.586;13.284;2023-11-21T12:55:40;101228.69;;;5.77;100.00